Time;durP1;ratioP1;P1;durP2;ratioP2;P2;SDS_P1;SDS_P2;PMS_P1;PMS_P2;Temp;Humidity;BMP_temperature;BMP_pressure;BME280_temperature;BME280_humidity;BME280_pressure;Samples;Min_cycle;Max_cycle;Signal;HPM_P1;HPM_P2
2023/09/27 00:01:27;;;;;;;;;;;;;;;;;;2199708;66;4200;-24
2023/09/27 00:03:58;;;;;;;;;;;;;;;;;;2195512;66;3347;-26
2023/09/27 00:06:28;;;;;;;;;;;;;;;;;;2200449;59;2961;-25
2023/09/27 00:08:58;;;;;;;;;;;;;;;;;;2196680;61;2619;-26
2023/09/27 00:11:29;;;;;;;;;;;;;;;;;;2198428;59;3531;-26
2023/09/27 00:13:59;;;;;;;;;;;;;;;;;;2199403;59;3637;-25
2023/09/27 00:16:30;;;;;;;;;;;;;;;;;;2195426;66;3334;-26
2023/09/27 00:19:00;;;;;;;;;;;;;;;;;;2199009;59;2902;-25
2023/09/27 00:21:30;;;;;;;;;;;;;;;;;;2195902;59;2478;-25
2023/09/27 00:24:01;;;;;;;;;;;;;;;;;;2198741;60;2693;-26
2023/09/27 00:26:31;;;;;;;;;;;;;;;;;;2199507;59;3694;-26
2023/09/27 00:29:01;;;;;;;;;;;;;;;;;;2197932;59;3158;-25
2023/09/27 00:31:31;;;;;;;;;;;;;;;;;;2198657;59;2614;-25
2023/09/27 00:34:04;;;;;;;;;;;;;;;;;;2196384;59;3372;-23
2023/09/27 00:36:35;;;;;;;;;;;;;;;;;;2197433;66;3356;-25
2023/09/27 00:39:05;;;;;;;;;;;;;;;;;;2198442;59;1761;-25
2023/09/27 00:41:35;;;;;;;;;;;;;;;;;;2198058;59;3155;-25
2023/09/27 00:44:05;;;;;;;;;;;;;;;;;;2198503;59;3358;-25
2023/09/27 00:46:36;;;;;;;;;;;;;;;;;;2197810;59;2449;-25
2023/09/27 00:49:07;;;;;;;;;;;;;;;;;;2199271;59;2583;-26
2023/09/27 00:51:37;;;;;;;;;;;;;;;;;;2198031;59;3915;-26
2023/09/27 00:54:08;;;;;;;;;;;;;;;;;;2198484;66;3174;-25
2023/09/27 00:56:39;;;;;;;;;;;;;;;;;;2197610;66;2353;-25
2023/09/27 00:59:09;;;;;;;;;;;;;;;;;;2199201;59;2712;-25
2023/09/27 01:01:40;;;;;;;;;;;;;;;;;;2197262;66;2344;-25
2023/09/27 01:04:11;;;;;;;;;;;;;;;;;;2199006;66;1130;-25
2023/09/27 01:06:42;;;;;;;;;;;;;;;;;;2197728;59;1466;-26
2023/09/27 01:09:12;;;;;;;;;;;;;;;;;;2199185;66;1312;-25
2023/09/27 01:11:46;;;;;;;;;;;;;;;;;;2198709;59;1932;-25
2023/09/27 01:14:16;;;;;;;;;;;;;;;;;;2199077;59;1803;-25
2023/09/27 01:16:46;;;;;;;;;;;;;;;;;;2197098;59;3744;-25
2023/09/27 01:19:17;;;;;;;;;;;;;;;;;;2198967;59;2284;-25
2023/09/27 01:21:47;;;;;;;;;;;;;;;;;;2198383;59;2748;-25
2023/09/27 01:24:18;;;;;;;;;;;;;;;;;;2198672;66;3367;-25
2023/09/27 01:26:48;;;;;;;;;;;;;;;;;;2198635;58;2934;-26
2023/09/27 01:29:18;;;;;;;;;;;;;;;;;;2199344;66;2434;-26
2023/09/27 01:31:49;;;;;;;;;;;;;;;;;;2198213;59;3571;-25
2023/09/27 01:34:19;;;;;;;;;;;;;;;;;;2197366;59;3536;-25
2023/09/27 01:36:51;;;;;;;;;;;;;;;;;;2197534;66;2645;-26
2023/09/27 01:39:21;;;;;;;;;;;;;;;;;;2198423;59;3669;-25
2023/09/27 01:41:51;;;;;;;;;;;;;;;;;;2197640;59;2544;-25
2023/09/27 01:44:22;;;;;;;;;;;;;;;;;;2198902;59;2808;-25
2023/09/27 01:46:52;;;;;;;;;;;;;;;;;;2198201;66;2770;-23
2023/09/27 01:49:22;;;;;;;;;;;;;;;;;;2198785;59;2766;-26
2023/09/27 01:51:52;;;;;;;;;;;;;;;;;;2192495;59;2325;-25
2023/09/27 01:54:22;;;;;;;;;;;;;;;;;;2199470;66;2536;-25
2023/09/27 01:56:53;;;;;;;;;;;;;;;;;;2194939;59;2609;-25
2023/09/27 01:59:23;;;;;;;;;;;;;;;;;;2200776;59;2417;-25
2023/09/27 02:01:53;;;;;;;;;;;;;;;;;;2195336;59;2260;-25
2023/09/27 02:04:24;;;;;;;;;;;;;;;;;;2198846;66;2420;-25
2023/09/27 02:06:57;;;;;;;;;;;;;;;;;;2194290;59;2677;-25
2023/09/27 02:09:27;;;;;;;;;;;;;;;;;;2199466;59;2510;-23
2023/09/27 02:11:57;;;;;;;;;;;;;;;;;;2201433;59;3543;-23
2023/09/27 02:14:28;;;;;;;;;;;;;;;;;;2199635;59;2773;-25
2023/09/27 02:16:58;;;;;;;;;;;;;;;;;;2197912;59;3426;-25
2023/09/27 02:19:28;;;;;;;;;;;;;;;;;;2199192;59;2676;-25
2023/09/27 02:21:58;;;;;;;;;;;;;;;;;;2197021;66;2381;-25
2023/09/27 02:24:28;;;;;;;;;;;;;;;;;;2195820;59;3658;-25
2023/09/27 02:26:59;;;;;;;;;;;;;;;;;;2202337;53;3886;-21
2023/09/27 02:29:29;;;;;;;;;;;;;;;;;;2197865;66;3311;-21
2023/09/27 02:31:59;;;;;;;;;;;;;;;;;;2196792;66;3794;-21
2023/09/27 02:34:30;;;;;;;;;;;;;;;;;;2198810;66;2332;-21
2023/09/27 02:37:00;;;;;;;;;;;;;;;;;;2197220;66;3518;-21
2023/09/27 02:39:30;;;;;;;;;;;;;;;;;;2198554;59;3448;-21
2023/09/27 02:42:00;;;;;;;;;;;;;;;;;;2195941;59;2975;-21
2023/09/27 02:44:31;;;;;;;;;;;;;;;;;;2199028;66;1767;-21
2023/09/27 02:47:02;;;;;;;;;;;;;;;;;;2197281;66;3200;-21
2023/09/27 02:49:34;;;;;;;;;;;;;;;;;;2198845;66;2743;-21
2023/09/27 02:52:06;;;;;;;;;;;;;;;;;;2197542;59;2614;-21
2023/09/27 02:54:37;;;;;;;;;;;;;;;;;;2198900;66;3336;-21
2023/09/27 02:57:07;;;;;;;;;;;;;;;;;;2197124;66;3570;-21
2023/09/27 02:59:37;;;;;;;;;;;;;;;;;;2199002;59;3521;-21
2023/09/27 03:02:08;;;;;;;;;;;;;;;;;;2198655;66;3232;-21
2023/09/27 03:04:40;;;;;;;;;;;;;;;;;;2198658;66;3711;-21
2023/09/27 03:07:14;;;;;;;;;;;;;;;;;;2198950;59;3383;-21
2023/09/27 03:09:48;;;;;;;;;;;;;;;;;;2197209;66;2477;-21
2023/09/27 03:12:18;;;;;;;;;;;;;;;;;;2196307;59;2232;-21
2023/09/27 03:14:49;;;;;;;;;;;;;;;;;;2198106;59;3871;-21
2023/09/27 03:17:22;;;;;;;;;;;;;;;;;;2199437;59;2306;-21
2023/09/27 03:19:53;;;;;;;;;;;;;;;;;;2197481;59;2455;-21
2023/09/27 03:22:26;;;;;;;;;;;;;;;;;;2198795;59;2993;-21
2023/09/27 03:24:56;;;;;;;;;;;;;;;;;;2197049;66;3385;-21
2023/09/27 03:27:26;;;;;;;;;;;;;;;;;;2197856;59;1753;-21
2023/09/27 03:29:56;;;;;;;;;;;;;;;;;;2197786;63;3690;-21
2023/09/27 03:32:27;;;;;;;;;;;;;;;;;;2199298;59;2448;-21
2023/09/27 03:34:57;;;;;;;;;;;;;;;;;;2197998;66;3838;-21
2023/09/27 03:37:28;;;;;;;;;;;;;;;;;;2199360;59;3542;-21
2023/09/27 03:39:58;;;;;;;;;;;;;;;;;;2197234;59;2669;-21
2023/09/27 03:42:29;;;;;;;;;;;;;;;;;;2197697;59;2498;-21
2023/09/27 03:44:59;;;;;;;;;;;;;;;;;;2198383;59;2718;-21
2023/09/27 03:47:30;;;;;;;;;;;;;;;;;;2198821;66;2200;-21
2023/09/27 03:50:03;;;;;;;;;;;;;;;;;;2197969;66;3676;-21
2023/09/27 03:52:34;;;;;;;;;;;;;;;;;;2197975;59;3414;-21
2023/09/27 03:55:10;;;;;;;;;;;;;;;;;;2198080;66;3530;-21
2023/09/27 03:57:41;;;;;;;;;;;;;;;;;;2197984;66;2782;-21
2023/09/27 04:00:15;;;;;;;;;;;;;;;;;;2198776;59;2442;-21
2023/09/27 04:02:48;;;;;;;;;;;;;;;;;;2197482;66;3502;-21
2023/09/27 04:05:21;;;;;;;;;;;;;;;;;;2199491;66;2398;-21
2023/09/27 04:07:51;;;;;;;;;;;;;;;;;;2197141;66;2720;-21
2023/09/27 04:10:24;;;;;;;;;;;;;;;;;;2197951;66;1875;-21
2023/09/27 04:12:54;;;;;;;;;;;;;;;;;;2197196;59;3672;-21
2023/09/27 04:15:24;;;;;;;;;;;;;;;;;;2198737;59;3356;-21
2023/09/27 04:17:54;;;;;;;;;;;;;;;;;;2197183;66;3731;-22
2023/09/27 04:20:25;;;;;;;;;;;;;;;;;;2196818;59;3684;-21
2023/09/27 04:22:55;;;;;;;;;;;;;;;;;;2197140;66;3153;-21
2023/09/27 04:25:25;;;;;;;;;;;;;;;;;;2198475;66;3637;-21
2023/09/27 04:27:56;;;;;;;;;;;;;;;;;;2197609;59;2661;-21
2023/09/27 04:30:26;;;;;;;;;;;;;;;;;;2199370;59;2238;-21
2023/09/27 04:32:56;;;;;;;;;;;;;;;;;;2197019;66;3469;-21
2023/09/27 04:35:27;;;;;;;;;;;;;;;;;;2199418;66;2376;-21
2023/09/27 04:37:57;;;;;;;;;;;;;;;;;;2200610;59;3784;-21
2023/09/27 04:40:30;;;;;;;;;;;;;;;;;;2198474;66;3118;-21
2023/09/27 04:43:00;;;;;;;;;;;;;;;;;;2197788;59;2618;-21
2023/09/27 04:45:30;;;;;;;;;;;;;;;;;;2197822;59;3820;-21
2023/09/27 04:48:01;;;;;;;;;;;;;;;;;;2197649;66;3765;-21
2023/09/27 04:50:31;;;;;;;;;;;;;;;;;;2198767;59;2474;-21
2023/09/27 04:53:01;;;;;;;;;;;;;;;;;;2197718;59;2442;-21
2023/09/27 04:55:32;;;;;;;;;;;;;;;;;;2198589;66;3228;-21
2023/09/27 04:58:02;;;;;;;;;;;;;;;;;;2196908;60;3653;-21
2023/09/27 05:00:32;;;;;;;;;;;;;;;;;;2198521;59;2894;-21
2023/09/27 05:03:02;;;;;;;;;;;;;;;;;;2197025;66;3450;-21
2023/09/27 05:05:33;;;;;;;;;;;;;;;;;;2198913;59;3390;-21
2023/09/27 05:08:03;;;;;;;;;;;;;;;;;;2197601;66;3603;-21
2023/09/27 05:10:33;;;;;;;;;;;;;;;;;;2198198;66;2162;-21
2023/09/27 05:13:03;;;;;;;;;;;;;;;;;;2197163;59;4056;-21
2023/09/27 05:15:34;;;;;;;;;;;;;;;;;;2198840;59;2593;-21
2023/09/27 05:18:04;;;;;;;;;;;;;;;;;;2196575;59;2919;-21
2023/09/27 05:20:35;;;;;;;;;;;;;;;;;;2197611;59;2941;-21
2023/09/27 05:23:05;;;;;;;;;;;;;;;;;;2196129;66;3454;-21
2023/09/27 05:25:35;;;;;;;;;;;;;;;;;;2197688;59;2619;-22
2023/09/27 05:28:05;;;;;;;;;;;;;;;;;;2196683;59;2936;-21
2023/09/27 05:30:36;;;;;;;;;;;;;;;;;;2197710;59;2928;-21
2023/09/27 05:33:06;;;;;;;;;;;;;;;;;;2196758;59;3305;-21
2023/09/27 05:35:36;;;;;;;;;;;;;;;;;;2196269;66;3984;-21
2023/09/27 05:38:07;;;;;;;;;;;;;;;;;;2196103;66;1991;-21
2023/09/27 05:40:37;;;;;;;;;;;;;;;;;;2196841;59;3343;-21
2023/09/27 05:43:07;;;;;;;;;;;;;;;;;;2195593;59;3424;-21
2023/09/27 05:45:37;;;;;;;;;;;;;;;;;;2198669;59;1907;-21
2023/09/27 05:48:07;;;;;;;;;;;;;;;;;;2198104;59;2682;-21
2023/09/27 05:50:40;;;;;;;;;;;;;;;;;;2199034;66;2517;-21
2023/09/27 05:53:11;;;;;;;;;;;;;;;;;;2196844;59;4400;-21
2023/09/27 05:55:42;;;;;;;;;;;;;;;;;;2197628;59;3794;-21
2023/09/27 05:58:12;;;;;;;;;;;;;;;;;;2197218;59;2728;-21
2023/09/27 06:00:47;;;;;;;;;;;;;;;;;;2198027;59;2313;-21
2023/09/27 06:03:18;;;;;;;;;;;;;;;;;;2197353;66;2629;-21
2023/09/27 06:05:51;;;;;;;;;;;;;;;;;;2198131;59;2206;-21
2023/09/27 06:08:21;;;;;;;;;;;;;;;;;;2198272;59;2561;-21
2023/09/27 06:10:51;;;;;;;;;;;;;;;;;;2196734;59;4035;-21
2023/09/27 06:13:21;;;;;;;;;;;;;;;;;;2197524;59;2896;-21
2023/09/27 06:15:54;;;;;;;;;;;;;;;;;;2197155;59;3318;-21
2023/09/27 06:18:24;;;;;;;;;;;;;;;;;;2197510;59;2463;-21
2023/09/27 06:20:54;;;;;;;;;;;;;;;;;;2197294;59;3468;-21
2023/09/27 06:23:25;;;;;;;;;;;;;;;;;;2197343;60;3174;-22
2023/09/27 06:25:55;;;;;;;;;;;;;;;;;;2197771;59;2382;-21
2023/09/27 06:28:25;;;;;;;;;;;;;;;;;;2199507;59;2601;-21
2023/09/27 06:30:55;;;;;;;;;;;;;;;;;;2197714;66;3487;-21
2023/09/27 06:33:25;;;;;;;;;;;;;;;;;;2198604;66;2450;-22
2023/09/27 06:35:59;;;;;;;;;;;;;;;;;;2197522;66;3442;-21
2023/09/27 06:38:29;;;;;;;;;;;;;;;;;;2198773;59;3604;-21
2023/09/27 06:41:00;;;;;;;;;;;;;;;;;;2197785;59;3496;-21
2023/09/27 06:43:31;;;;;;;;;;;;;;;;;;2198801;59;2701;-22
2023/09/27 06:46:07;;;;;;;;;;;;;;;;;;2198258;59;2329;-22
2023/09/27 06:48:37;;;;;;;;;;;;;;;;;;2199364;66;3279;-22
2023/09/27 06:51:08;;;;;;;;;;;;;;;;;;2198892;59;2580;-22
2023/09/27 06:53:38;;;;;;;;;;;;;;;;;;2200051;66;2004;-21
2023/09/27 06:56:08;;;;;;;;;;;;;;;;;;2198100;66;2647;-22
2023/09/27 06:58:40;;;;;;;;;;;;;;;;;;2200136;59;2659;-22
2023/09/27 07:01:10;;;;;;;;;;;;;;;;;;2198186;59;2302;-21
2023/09/27 07:03:41;;;;;;;;;;;;;;;;;;2198709;59;2235;-21
2023/09/27 07:06:11;;;;;;;;;;;;;;;;;;2197472;59;3013;-21
2023/09/27 07:08:43;;;;;;;;;;;;;;;;;;2198291;59;2936;-22
2023/09/27 07:11:14;;;;;;;;;;;;;;;;;;2198181;59;3669;-22
2023/09/27 07:13:44;;;;;;;;;;;;;;;;;;2198860;59;2636;-22
2023/09/27 07:16:20;;;;;;;;;;;;;;;;;;2196735;59;2584;-22
2023/09/27 07:18:50;;;;;;;;;;;;;;;;;;2199011;59;2711;-22
2023/09/27 07:21:20;;;;;;;;;;;;;;;;;;2198374;59;3616;-21
2023/09/27 07:23:53;;;;;;;;;;;;;;;;;;2198114;59;2991;-22
2023/09/27 07:26:24;;;;;;;;;;;;;;;;;;2198991;59;2619;-22
2023/09/27 07:28:57;;;;;;;;;;;;;;;;;;2198908;66;4509;-22
2023/09/27 07:31:27;;;;;;;;;;;;;;;;;;2198242;66;2758;-22
2023/09/27 07:33:57;;;;;;;;;;;;;;;;;;2198042;59;2461;-21
2023/09/27 07:36:28;;;;;;;;;;;;;;;;;;2199529;66;3094;-22
2023/09/27 07:39:01;;;;;;;;;;;;;;;;;;2197496;59;2538;-21
2023/09/27 07:41:35;;;;;;;;;;;;;;;;;;2198936;59;2308;-22
2023/09/27 07:44:07;;;;;;;;;;;;;;;;;;2199568;66;3492;-22
2023/09/27 07:46:38;;;;;;;;;;;;;;;;;;2198469;59;3601;-21
2023/09/27 07:49:08;;;;;;;;;;;;;;;;;;2197697;66;2683;-22
2023/09/27 07:51:38;;;;;;;;;;;;;;;;;;2197716;59;3456;-22
2023/09/27 07:54:09;;;;;;;;;;;;;;;;;;2197172;66;2885;-22
2023/09/27 07:56:39;;;;;;;;;;;;;;;;;;2198168;66;2617;-22
2023/09/27 07:59:10;;;;;;;;;;;;;;;;;;2195193;66;2360;-21
2023/09/27 08:01:41;;;;;;;;;;;;;;;;;;2198364;66;3413;-22
2023/09/27 08:04:15;;;;;;;;;;;;;;;;;;2197011;66;2423;-22
2023/09/27 08:06:46;;;;;;;;;;;;;;;;;;2198462;59;2389;-22
2023/09/27 08:09:16;;;;;;;;;;;;;;;;;;2196820;59;3414;-22
2023/09/27 08:11:46;;;;;;;;;;;;;;;;;;2197104;59;1940;-22
2023/09/27 08:14:19;;;;;;;;;;;;;;;;;;2197515;59;3674;-22
2023/09/27 08:16:50;;;;;;;;;;;;;;;;;;2198492;59;2434;-22
2023/09/27 08:19:21;;;;;;;;;;;;;;;;;;2197758;59;3258;-22
2023/09/27 08:21:52;;;;;;;;;;;;;;;;;;2197471;66;2429;-22
2023/09/27 08:24:22;;;;;;;;;;;;;;;;;;2196088;66;3784;-23
2023/09/27 08:26:52;;;;;;;;;;;;;;;;;;2198023;59;3335;-23
2023/09/27 08:29:23;;;;;;;;;;;;;;;;;;2205707;53;2337;-24
2023/09/27 08:31:53;;;;;;;;;;;;;;;;;;2206124;66;2988;-24
2023/09/27 08:34:23;;;;;;;;;;;;;;;;;;2206670;59;3965;-24
2023/09/27 08:36:54;;;;;;;;;;;;;;;;;;2207370;66;2720;-24
2023/09/27 08:39:24;;;;;;;;;;;;;;;;;;2205565;59;2532;-24
2023/09/27 08:41:55;;;;;;;;;;;;;;;;;;2199269;59;2438;-25
2023/09/27 08:44:25;;;;;;;;;;;;;;;;;;2204163;59;2844;-24
2023/09/27 08:46:56;;;;;;;;;;;;;;;;;;2204688;66;1675;-24
2023/09/27 08:49:27;;;;;;;;;;;;;;;;;;2203411;59;2593;-24
2023/09/27 08:51:57;;;;;;;;;;;;;;;;;;2205006;59;3468;-24
2023/09/27 08:54:28;;;;;;;;;;;;;;;;;;2197986;66;2768;-24
2023/09/27 08:56:58;;;;;;;;;;;;;;;;;;2204961;59;2413;-24
2023/09/27 08:59:29;;;;;;;;;;;;;;;;;;2202952;59;2356;-26
2023/09/27 09:02:04;;;;;;;;;;;;;;;;;;2204873;66;2349;-25
2023/09/27 09:04:35;;;;;;;;;;;;;;;;;;2205834;66;2348;-25
2023/09/27 09:07:06;;;;;;;;;;;;;;;;;;2205833;59;2825;-24
2023/09/27 09:09:39;;;;;;;;;;;;;;;;;;2202066;66;3044;-26
2023/09/27 09:12:13;;;;;;;;;;;;;;;;;;2205314;59;2211;-26
2023/09/27 09:14:49;;;;;;;;;;;;;;;;;;2205042;59;3596;-24
2023/09/27 09:17:24;;;;;;;;;;;;;;;;;;2204013;59;1814;-24
2023/09/27 09:20:31;;;;;;;;;;;;;;;;;;2206387;59;2329;-24
2023/09/27 09:23:03;;;;;;;;;;;;;;;;;;2204776;59;4076;-24
2023/09/27 09:25:46;;;;;;;;;;;;;;;;;;2203863;59;3492;-24
2023/09/27 09:28:16;;;;;;;;;;;;;;;;;;2205265;59;4202;-24
2023/09/27 09:30:46;;;;;;;;;;;;;;;;;;2202415;59;3759;-24
2023/09/27 09:33:20;;;;;;;;;;;;;;;;;;2205947;59;3425;-24
2023/09/27 09:35:51;;;;;;;;;;;;;;;;;;2201218;59;3526;-24
2023/09/27 09:38:26;;;;;;;;;;;;;;;;;;2201322;59;2775;-25
2023/09/27 09:40:58;;;;;;;;;;;;;;;;;;2206537;59;2611;-25
2023/09/27 09:43:36;;;;;;;;;;;;;;;;;;2205495;66;4057;-25
2023/09/27 09:46:08;;;;;;;;;;;;;;;;;;2200632;59;3477;-25
2023/09/27 09:48:38;;;;;;;;;;;;;;;;;;2201757;59;3480;-25
2023/09/27 09:51:12;;;;;;;;;;;;;;;;;;2204461;59;2525;-25
2023/09/27 09:53:43;;;;;;;;;;;;;;;;;;2202288;59;2946;-25
2023/09/27 09:56:14;;;;;;;;;;;;;;;;;;2200766;66;2627;-25
2023/09/27 09:58:54;;;;;;;;;;;;;;;;;;2200891;66;2321;-25
2023/09/27 10:01:27;;;;;;;;;;;;;;;;;;2203643;59;2313;-25
2023/09/27 10:04:03;;;;;;;;;;;;;;;;;;2204343;59;4559;-25
2023/09/27 10:06:36;;;;;;;;;;;;;;;;;;2204794;59;2805;-25
2023/09/27 10:09:13;;;;;;;;;;;;;;;;;;2203068;59;3623;-25
2023/09/27 10:11:44;;;;;;;;;;;;;;;;;;2203239;59;3265;-25
2023/09/27 10:14:16;;;;;;;;;;;;;;;;;;2203330;59;3346;-25
2023/09/27 10:16:48;;;;;;;;;;;;;;;;;;2200919;66;3074;-25
2023/09/27 10:19:26;;;;;;;;;;;;;;;;;;2200488;58;3329;-25
2023/09/27 10:22:07;;;;;;;;;;;;;;;;;;2201294;59;2459;-25
2023/09/27 10:24:41;;;;;;;;;;;;;;;;;;2204197;66;2629;-25
2023/09/27 10:27:15;;;;;;;;;;;;;;;;;;2197827;59;3747;-25
2023/09/27 10:29:58;;;;;;;;;;;;;;;;;;2202120;66;2383;-25
2023/09/27 10:32:28;;;;;;;;;;;;;;;;;;2206589;59;3706;-25
2023/09/27 10:35:14;;;;;;;;;;;;;;;;;;2205419;59;4031;-25
2023/09/27 10:37:58;;;;;;;;;;;;;;;;;;2205242;59;2767;-25
2023/09/27 10:40:40;;;;;;;;;;;;;;;;;;2200496;66;2262;-25
2023/09/27 10:43:30;;;;;;;;;;;;;;;;;;2204658;59;3557;-24
2023/09/27 10:46:04;;;;;;;;;;;;;;;;;;2205824;59;3162;-25
2023/09/27 10:48:36;;;;;;;;;;;;;;;;;;2206863;59;2567;-24
2023/09/27 10:51:06;;;;;;;;;;;;;;;;;;2204792;59;4014;-23
2023/09/27 10:53:36;;;;;;;;;;;;;;;;;;2201101;59;3200;-24
2023/09/27 10:56:07;;;;;;;;;;;;;;;;;;2205179;59;2362;-24
2023/09/27 10:58:44;;;;;;;;;;;;;;;;;;2205113;66;3853;-25
2023/09/27 11:01:25;;;;;;;;;;;;;;;;;;2205747;59;3935;-24
2023/09/27 11:03:59;;;;;;;;;;;;;;;;;;2205542;58;2326;-24
2023/09/27 11:06:36;;;;;;;;;;;;;;;;;;2208241;59;2769;-24
2023/09/27 11:09:13;;;;;;;;;;;;;;;;;;2209510;62;1882;-26
2023/09/27 11:11:49;;;;;;;;;;;;;;;;;;2204040;59;2523;-25
2023/09/27 11:14:32;;;;;;;;;;;;;;;;;;2204025;59;2133;-26
2023/09/27 11:17:23;;;;;;;;;;;;;;;;;;2204708;60;1865;-26
2023/09/27 11:19:53;;;;;;;;;;;;;;;;;;2204700;59;1751;-25
2023/09/27 11:22:25;;;;;;;;;;;;;;;;;;2203114;66;4046;-26
2023/09/27 11:24:55;;;;;;;;;;;;;;;;;;2205033;66;3142;-26
2023/09/27 11:27:26;;;;;;;;;;;;;;;;;;2202509;59;3322;-25
2023/09/27 11:29:57;;;;;;;;;;;;;;;;;;2203040;59;3535;-24
2023/09/27 11:32:27;;;;;;;;;;;;;;;;;;2204025;66;3300;-25
2023/09/27 11:34:58;;;;;;;;;;;;;;;;;;2205003;58;2684;-24
2023/09/27 11:37:28;;;;;;;;;;;;;;;;;;2203460;66;3830;-25
2023/09/27 11:39:58;;;;;;;;;;;;;;;;;;2203700;59;1837;-25
2023/09/27 11:42:29;;;;;;;;;;;;;;;;;;2205026;59;2433;-25
2023/09/27 11:45:05;;;;;;;;;;;;;;;;;;2204078;59;3632;-25
2023/09/27 11:47:46;;;;;;;;;;;;;;;;;;2202739;66;3550;-23
2023/09/27 11:50:17;;;;;;;;;;;;;;;;;;2202834;58;2451;-23
2023/09/27 11:52:47;;;;;;;;;;;;;;;;;;2204009;59;4179;-23
2023/09/27 11:55:18;;;;;;;;;;;;;;;;;;2203295;59;4314;-23
2023/09/27 11:57:49;;;;;;;;;;;;;;;;;;2202888;59;1892;-23
2023/09/27 12:00:19;;;;;;;;;;;;;;;;;;2202905;59;2576;-23
2023/09/27 12:02:51;;;;;;;;;;;;;;;;;;2204210;66;2903;-23
2023/09/27 12:05:21;;;;;;;;;;;;;;;;;;2203114;59;3514;-23
2023/09/27 12:07:52;;;;;;;;;;;;;;;;;;2201041;66;2224;-23
2023/09/27 12:10:25;;;;;;;;;;;;;;;;;;2201308;59;3713;-23
2023/09/27 12:12:55;;;;;;;;;;;;;;;;;;2202544;59;2527;-23
2023/09/27 12:15:26;;;;;;;;;;;;;;;;;;2202731;59;2341;-23
2023/09/27 12:17:59;;;;;;;;;;;;;;;;;;2200011;58;2287;-23
2023/09/27 12:20:30;;;;;;;;;;;;;;;;;;2204676;59;3622;-23
2023/09/27 12:23:00;;;;;;;;;;;;;;;;;;2204691;59;4028;-23
2023/09/27 12:25:32;;;;;;;;;;;;;;;;;;2202870;66;2795;-23
2023/09/27 12:28:03;;;;;;;;;;;;;;;;;;2201316;59;2144;-23
2023/09/27 12:30:33;;;;;;;;;;;;;;;;;;2203543;59;2365;-23
2023/09/27 12:33:04;;;;;;;;;;;;;;;;;;2200577;66;3193;-23
2023/09/27 12:35:34;;;;;;;;;;;;;;;;;;2204018;66;2745;-23
2023/09/27 12:38:06;;;;;;;;;;;;;;;;;;2204813;59;3958;-23
2023/09/27 12:40:36;;;;;;;;;;;;;;;;;;2205691;66;2288;-23
2023/09/27 12:43:07;;;;;;;;;;;;;;;;;;2203529;59;2442;-23
2023/09/27 12:45:37;;;;;;;;;;;;;;;;;;2200957;59;3716;-25
2023/09/27 12:48:08;;;;;;;;;;;;;;;;;;2203898;59;2306;-25
2023/09/27 12:50:41;;;;;;;;;;;;;;;;;;2202602;59;3033;-23
2023/09/27 12:53:12;;;;;;;;;;;;;;;;;;2203397;59;2368;-23
2023/09/27 12:55:42;;;;;;;;;;;;;;;;;;2203515;66;2421;-23
2023/09/27 12:58:15;;;;;;;;;;;;;;;;;;2203730;59;3227;-23
2023/09/27 13:00:48;;;;;;;;;;;;;;;;;;2204134;66;2241;-23
2023/09/27 13:03:19;;;;;;;;;;;;;;;;;;2202865;66;3727;-23
2023/09/27 13:05:49;;;;;;;;;;;;;;;;;;2203863;59;3968;-23
2023/09/27 13:08:19;;;;;;;;;;;;;;;;;;2203119;66;2255;-23
2023/09/27 13:10:49;;;;;;;;;;;;;;;;;;2203829;59;2950;-23
2023/09/27 13:13:19;;;;;;;;;;;;;;;;;;2202247;59;2363;-23
2023/09/27 13:15:50;;;;;;;;;;;;;;;;;;2201552;59;2083;-24
2023/09/27 13:18:21;;;;;;;;;;;;;;;;;;2202885;58;4187;-25
2023/09/27 13:20:51;;;;;;;;;;;;;;;;;;2204618;59;2123;-25
2023/09/27 13:23:22;;;;;;;;;;;;;;;;;;2203289;66;3262;-24
2023/09/27 13:25:56;;;;;;;;;;;;;;;;;;2203615;59;2413;-24
2023/09/27 13:28:26;;;;;;;;;;;;;;;;;;2204040;59;4104;-25
2023/09/27 13:30:56;;;;;;;;;;;;;;;;;;2203981;66;2439;-24
2023/09/27 13:33:27;;;;;;;;;;;;;;;;;;2202922;66;2868;-24
2023/09/27 13:35:58;;;;;;;;;;;;;;;;;;2203309;60;2576;-24
2023/09/27 13:38:29;;;;;;;;;;;;;;;;;;2203143;59;3694;-24
2023/09/27 13:40:59;;;;;;;;;;;;;;;;;;2201416;59;2892;-24
2023/09/27 13:43:32;;;;;;;;;;;;;;;;;;2199978;66;2485;-24
2023/09/27 13:46:02;;;;;;;;;;;;;;;;;;2203486;59;2388;-24
2023/09/27 13:48:34;;;;;;;;;;;;;;;;;;2199384;59;3093;-24
2023/09/27 13:51:04;;;;;;;;;;;;;;;;;;2204020;59;3418;-24
2023/09/27 13:53:35;;;;;;;;;;;;;;;;;;2200449;60;3599;-24
2023/09/27 13:56:05;;;;;;;;;;;;;;;;;;2200029;66;3815;-24
2023/09/27 13:58:39;;;;;;;;;;;;;;;;;;2202680;66;3236;-24
2023/09/27 14:01:09;;;;;;;;;;;;;;;;;;2202508;66;2372;-24
2023/09/27 14:03:39;;;;;;;;;;;;;;;;;;2203565;66;2250;-24
2023/09/27 14:06:09;;;;;;;;;;;;;;;;;;2203220;59;3071;-24
2023/09/27 14:08:39;;;;;;;;;;;;;;;;;;2200002;66;3659;-24
2023/09/27 14:11:13;;;;;;;;;;;;;;;;;;2201629;66;2411;-24
2023/09/27 14:13:45;;;;;;;;;;;;;;;;;;2202668;59;2946;-24
2023/09/27 14:16:16;;;;;;;;;;;;;;;;;;2200355;60;3478;-24
2023/09/27 14:18:46;;;;;;;;;;;;;;;;;;2199810;58;2784;-24
2023/09/27 14:21:17;;;;;;;;;;;;;;;;;;2204087;59;2427;-24
2023/09/27 14:23:48;;;;;;;;;;;;;;;;;;2202707;59;2735;-24
2023/09/27 14:26:19;;;;;;;;;;;;;;;;;;2202134;59;3453;-25
2023/09/27 14:28:49;;;;;;;;;;;;;;;;;;2201562;54;3659;-18
2023/09/27 14:31:27;;;;;;;;;;;;;;;;;;2197531;58;3435;-18
2023/09/27 14:33:58;;;;;;;;;;;;;;;;;;2200519;66;2742;-18
2023/09/27 14:36:28;;;;;;;;;;;;;;;;;;2200047;59;2803;-18
2023/09/27 14:38:59;;;;;;;;;;;;;;;;;;2200107;59;3341;-18
2023/09/27 14:41:29;;;;;;;;;;;;;;;;;;2197424;59;3839;-18
2023/09/27 14:43:59;;;;;;;;;;;;;;;;;;2200875;66;1635;-18
2023/09/27 14:46:31;;;;;;;;;;;;;;;;;;2200330;59;1497;-18
2023/09/27 14:49:02;;;;;;;;;;;;;;;;;;2200171;59;3959;-18
2023/09/27 14:51:33;;;;;;;;;;;;;;;;;;2200386;59;3021;-18
2023/09/27 14:54:03;;;;;;;;;;;;;;;;;;2201197;59;2744;-19
2023/09/27 14:56:33;;;;;;;;;;;;;;;;;;2197052;59;2507;-18
2023/09/27 14:59:03;;;;;;;;;;;;;;;;;;2201556;58;2192;-18
2023/09/27 15:01:34;;;;;;;;;;;;;;;;;;2200479;59;1774;-18
2023/09/27 15:04:06;;;;;;;;;;;;;;;;;;2201704;58;2631;-18
2023/09/27 15:06:36;;;;;;;;;;;;;;;;;;2201618;59;2453;-18
2023/09/27 15:09:06;;;;;;;;;;;;;;;;;;2201079;59;2364;-18
2023/09/27 15:11:37;;;;;;;;;;;;;;;;;;2200256;59;2380;-18
2023/09/27 15:14:07;;;;;;;;;;;;;;;;;;2198352;59;2293;-18
2023/09/27 15:16:37;;;;;;;;;;;;;;;;;;2201449;66;2267;-19
2023/09/27 15:19:08;;;;;;;;;;;;;;;;;;2200746;59;3262;-18
2023/09/27 15:21:38;;;;;;;;;;;;;;;;;;2200296;59;2694;-18
2023/09/27 15:24:09;;;;;;;;;;;;;;;;;;2200984;66;2572;-18
2023/09/27 15:26:39;;;;;;;;;;;;;;;;;;2200219;59;2727;-18
2023/09/27 15:29:10;;;;;;;;;;;;;;;;;;2199976;59;3302;-18
2023/09/27 15:31:40;;;;;;;;;;;;;;;;;;2199339;59;2602;-18
2023/09/27 15:34:11;;;;;;;;;;;;;;;;;;2201474;59;2865;-18
2023/09/27 15:36:41;;;;;;;;;;;;;;;;;;2196630;66;2348;-18
2023/09/27 15:39:11;;;;;;;;;;;;;;;;;;2200437;59;4367;-18
2023/09/27 15:41:42;;;;;;;;;;;;;;;;;;2200796;59;4293;-18
2023/09/27 15:44:12;;;;;;;;;;;;;;;;;;2201135;66;2215;-18
2023/09/27 15:46:46;;;;;;;;;;;;;;;;;;2201163;59;2060;-18
2023/09/27 15:49:16;;;;;;;;;;;;;;;;;;2201956;59;3254;-18
2023/09/27 15:51:46;;;;;;;;;;;;;;;;;;2200926;59;3145;-18
2023/09/27 15:54:17;;;;;;;;;;;;;;;;;;2200985;58;2270;-18
2023/09/27 15:56:47;;;;;;;;;;;;;;;;;;2200976;59;2504;-18
2023/09/27 15:59:19;;;;;;;;;;;;;;;;;;2201982;59;3759;-18
2023/09/27 16:01:49;;;;;;;;;;;;;;;;;;2200480;59;2222;-18
2023/09/27 16:04:19;;;;;;;;;;;;;;;;;;2201003;66;2385;-18
2023/09/27 16:06:49;;;;;;;;;;;;;;;;;;2197478;59;3088;-18
2023/09/27 16:09:20;;;;;;;;;;;;;;;;;;2200528;66;2405;-18
2023/09/27 16:11:51;;;;;;;;;;;;;;;;;;2200791;58;2766;-18
2023/09/27 16:14:24;;;;;;;;;;;;;;;;;;2201575;59;2194;-18
2023/09/27 16:16:56;;;;;;;;;;;;;;;;;;2200951;59;3046;-18
2023/09/27 16:19:26;;;;;;;;;;;;;;;;;;2199721;59;3132;-18
2023/09/27 16:21:56;;;;;;;;;;;;;;;;;;2198057;59;4082;-18
2023/09/27 16:24:27;;;;;;;;;;;;;;;;;;2198308;59;4664;-18
2023/09/27 16:26:59;;;;;;;;;;;;;;;;;;2202099;59;2046;-18
2023/09/27 16:29:30;;;;;;;;;;;;;;;;;;2199727;59;2280;-18
2023/09/27 16:32:01;;;;;;;;;;;;;;;;;;2200984;58;2960;-18
2023/09/27 16:34:31;;;;;;;;;;;;;;;;;;2199942;59;3585;-18
2023/09/27 16:37:01;;;;;;;;;;;;;;;;;;2196718;59;2294;-17
2023/09/27 16:39:31;;;;;;;;;;;;;;;;;;2197973;58;4506;-18
2023/09/27 16:42:02;;;;;;;;;;;;;;;;;;2201749;58;2014;-17
2023/09/27 16:44:32;;;;;;;;;;;;;;;;;;2200038;59;3495;-18
2023/09/27 16:47:02;;;;;;;;;;;;;;;;;;2201141;59;2352;-18
2023/09/27 16:49:33;;;;;;;;;;;;;;;;;;2200679;59;3560;-18
2023/09/27 16:52:03;;;;;;;;;;;;;;;;;;2199432;59;2799;-18
2023/09/27 16:54:33;;;;;;;;;;;;;;;;;;2201181;59;3677;-17
2023/09/27 16:57:04;;;;;;;;;;;;;;;;;;2201068;58;3173;-18
2023/09/27 16:59:35;;;;;;;;;;;;;;;;;;2199956;59;3912;-17
2023/09/27 17:02:06;;;;;;;;;;;;;;;;;;2201576;58;1761;-18
2023/09/27 17:04:36;;;;;;;;;;;;;;;;;;2200325;58;3039;-17
2023/09/27 17:07:07;;;;;;;;;;;;;;;;;;2201683;59;3033;-17
2023/09/27 17:09:42;;;;;;;;;;;;;;;;;;2199906;66;2492;-18
2023/09/27 17:12:12;;;;;;;;;;;;;;;;;;2200847;58;3204;-18
2023/09/27 17:14:43;;;;;;;;;;;;;;;;;;2197456;59;3494;-17
2023/09/27 17:17:14;;;;;;;;;;;;;;;;;;2201363;59;2113;-17
2023/09/27 17:19:44;;;;;;;;;;;;;;;;;;2200311;59;3835;-18
2023/09/27 17:22:14;;;;;;;;;;;;;;;;;;2201717;66;3313;-18
2023/09/27 17:24:45;;;;;;;;;;;;;;;;;;2199932;59;4086;-17
2023/09/27 17:27:16;;;;;;;;;;;;;;;;;;2201387;59;2180;-17
2023/09/27 17:29:46;;;;;;;;;;;;;;;;;;2199639;59;2754;-17
2023/09/27 17:32:17;;;;;;;;;;;;;;;;;;2201114;59;2838;-18